createdAt,value
2023-01-15T00:02:16.655Z,11.20
2023-01-15T00:04:43.708Z,11.13
2023-01-15T00:07:10.770Z,11.12
2023-01-15T00:09:37.824Z,11.18
2023-01-15T00:12:05.165Z,11.16
2023-01-15T00:14:32.159Z,11.14
2023-01-15T00:16:59.077Z,11.19
2023-01-15T00:19:26.082Z,11.16
2023-01-15T00:21:53.979Z,11.19
2023-01-15T00:24:40.189Z,11.21
2023-01-15T00:27:27.657Z,11.08
2023-01-15T00:29:55.045Z,10.91
2023-01-15T00:32:22.070Z,10.85
2023-01-15T00:34:49.058Z,10.85
2023-01-15T00:37:16.039Z,10.92
2023-01-15T00:39:43.828Z,10.91
2023-01-15T00:42:12.338Z,11.00
2023-01-15T00:44:39.499Z,10.91
2023-01-15T00:47:08.980Z,11.07
2023-01-15T00:49:36.029Z,11.03
2023-01-15T00:52:03.468Z,11.04
2023-01-15T00:54:31.224Z,11.04
2023-01-15T00:56:58.374Z,11.26
2023-01-15T00:59:25.663Z,11.19
2023-01-15T01:01:53.336Z,11.16
2023-01-15T01:04:20.355Z,11.12
2023-01-15T01:06:47.640Z,11.20
2023-01-15T01:09:16.059Z,11.34
2023-01-15T01:11:43.502Z,11.25
2023-01-15T01:14:13.789Z,11.23
2023-01-15T01:16:44.195Z,11.28
2023-01-15T01:19:18.400Z,11.40
2023-01-15T01:21:48.299Z,11.44
2023-01-15T01:24:22.267Z,11.48
2023-01-15T01:26:51.446Z,11.46
2023-01-15T01:29:22.566Z,11.64
2023-01-15T01:31:51.174Z,11.83
2023-01-15T01:34:18.998Z,11.76
2023-01-15T01:36:46.028Z,11.76
2023-01-15T01:39:17.315Z,11.65
2023-01-15T01:41:45.422Z,11.63
2023-01-15T01:44:34.855Z,11.64
2023-01-15T01:47:07.283Z,11.60
2023-01-15T01:49:35.901Z,11.64
2023-01-15T01:52:10.162Z,11.63
2023-01-15T01:54:38.757Z,11.77
2023-01-15T01:57:08.849Z,11.68
2023-01-15T01:59:37.333Z,11.79
2023-01-15T02:02:05.194Z,11.81
2023-01-15T02:04:32.675Z,11.75
2023-01-15T02:07:01.718Z,11.67
2023-01-15T02:09:29.084Z,11.74
2023-01-15T02:12:25.098Z,11.74
2023-01-15T02:15:08.805Z,11.64
2023-01-15T02:18:17.496Z,11.62
2023-01-15T02:20:58.172Z,11.65
2023-01-15T02:23:33.749Z,11.62
2023-01-15T02:26:41.803Z,11.60
2023-01-15T02:29:15.585Z,11.53
2023-01-15T02:31:49.385Z,11.59
2023-01-15T02:34:32.617Z,11.59
2023-01-15T02:37:15.150Z,11.54
2023-01-15T02:39:46.006Z,11.47
2023-01-15T02:42:15.579Z,11.54
2023-01-15T02:44:52.164Z,11.54
2023-01-15T02:47:27.051Z,11.60
2023-01-15T02:50:00.316Z,11.57
2023-01-15T02:52:45.942Z,11.46
2023-01-15T02:55:23.308Z,11.31
2023-01-15T02:57:55.347Z,11.20
2023-01-15T03:00:24.663Z,11.07
2023-01-15T03:03:05.937Z,11.14
2023-01-15T03:05:40.543Z,11.05
2023-01-15T03:08:09.855Z,11.03
2023-01-15T03:11:06.279Z,11.09
2023-01-15T03:13:56.759Z,11.13
2023-01-15T03:16:34.973Z,11.22
2023-01-15T03:19:08.199Z,11.32
2023-01-15T03:22:02.049Z,11.26
2023-01-15T03:24:36.019Z,11.23
2023-01-15T03:27:04.090Z,11.35
2023-01-15T03:29:37.520Z,11.28
2023-01-15T03:32:07.169Z,11.35
2023-01-15T03:34:46.079Z,11.38
2023-01-15T03:37:19.779Z,11.39
2023-01-15T03:39:47.992Z,11.47
2023-01-15T03:42:38.594Z,11.46
2023-01-15T03:45:17.587Z,11.47
2023-01-15T03:48:16.822Z,11.57
2023-01-15T03:51:08.839Z,11.44
2023-01-15T03:53:55.138Z,11.38
2023-01-15T03:56:55.683Z,11.45
2023-01-15T03:59:34.884Z,11.49
2023-01-15T04:02:06.770Z,11.51
2023-01-15T04:04:34.679Z,11.48
2023-01-15T04:07:04.239Z,11.49
2023-01-15T04:09:39.180Z,11.60
2023-01-15T04:12:08.900Z,11.53
2023-01-15T04:14:40.480Z,11.47
2023-01-15T04:17:10.694Z,11.43
2023-01-15T04:19:38.163Z,11.54
2023-01-15T04:22:10.832Z,11.66
2023-01-15T04:24:38.372Z,11.69
2023-01-15T04:27:05.427Z,11.63
2023-01-15T04:29:32.456Z,11.60
2023-01-15T04:31:59.751Z,11.64
2023-01-15T04:34:28.468Z,11.64
2023-01-15T04:36:56.569Z,11.59
2023-01-15T04:39:24.386Z,11.65
2023-01-15T04:42:10.294Z,11.62
2023-01-15T04:44:38.311Z,11.52
2023-01-15T04:47:05.883Z,11.63
2023-01-15T04:49:34.359Z,11.66
2023-01-15T04:52:01.446Z,11.60
2023-01-15T04:54:28.404Z,11.46
2023-01-15T04:56:55.820Z,11.29
2023-01-15T04:59:25.600Z,10.99
2023-01-15T05:02:03.921Z,10.78
2023-01-15T05:04:34.154Z,10.53
2023-01-15T05:07:03.076Z,10.57
2023-01-15T05:09:30.599Z,10.46
2023-01-15T05:11:58.158Z,10.14
2023-01-15T05:14:25.200Z,10.11
2023-01-15T05:16:52.657Z,9.99
2023-01-15T05:19:20.073Z,9.89
2023-01-15T05:21:47.515Z,9.86
2023-01-15T05:24:17.714Z,9.83
2023-01-15T05:26:45.256Z,9.62
2023-01-15T05:29:14.599Z,9.19
2023-01-15T05:31:44.972Z,8.83
2023-01-15T05:34:12.927Z,8.69
2023-01-15T05:36:39.947Z,8.57
2023-01-15T05:39:07.709Z,8.50
2023-01-15T05:41:50.885Z,8.33
2023-01-15T05:44:28.157Z,8.23
2023-01-15T05:47:02.542Z,8.14
2023-01-15T05:49:31.447Z,8.10
2023-01-15T05:52:00.561Z,8.09
2023-01-15T05:54:30.189Z,8.04
2023-01-15T05:56:57.683Z,7.99
2023-01-15T05:59:27.091Z,7.94
2023-01-15T06:01:54.962Z,7.88
2023-01-15T06:04:23.162Z,7.83
2023-01-15T06:06:52.090Z,7.79
2023-01-15T06:09:19.639Z,7.77
2023-01-15T06:11:47.433Z,7.71
2023-01-15T06:14:15.300Z,7.62
2023-01-15T06:16:42.731Z,7.57
2023-01-15T06:19:11.993Z,7.55
2023-01-15T06:21:39.689Z,7.49
2023-01-15T06:24:07.789Z,7.40
2023-01-15T06:26:35.303Z,7.34
2023-01-15T06:29:02.682Z,7.36
2023-01-15T06:31:30.228Z,7.34
2023-01-15T06:33:57.258Z,7.28
2023-01-15T06:36:26.683Z,7.28
2023-01-15T06:38:53.981Z,7.22
2023-01-15T06:41:43.030Z,7.20
2023-01-15T06:44:36.129Z,7.10
2023-01-15T06:47:23.625Z,7.03
2023-01-15T06:49:57.643Z,6.96
2023-01-15T06:52:27.292Z,6.90
2023-01-15T06:54:55.269Z,6.83
2023-01-15T06:57:22.663Z,6.80
2023-01-15T06:59:50.679Z,6.73
2023-01-15T07:02:18.674Z,6.70
2023-01-15T07:04:47.850Z,6.69
2023-01-15T07:07:19.830Z,6.69
2023-01-15T07:09:47.190Z,6.60
2023-01-15T07:12:14.610Z,6.59
2023-01-15T07:14:41.962Z,6.55
2023-01-15T07:17:09.611Z,6.52
2023-01-15T07:19:37.554Z,6.50
2023-01-15T07:22:05.601Z,6.46
2023-01-15T07:24:33.368Z,6.38
2023-01-15T07:27:00.893Z,6.24
2023-01-15T07:29:30.627Z,6.06
2023-01-15T07:31:58.270Z,5.97
2023-01-15T07:34:25.718Z,5.93
2023-01-15T07:36:53.135Z,5.97
2023-01-15T07:39:20.701Z,5.94
2023-01-15T07:42:06.582Z,5.91
2023-01-15T07:44:54.125Z,5.92
2023-01-15T07:47:44.456Z,5.95
2023-01-15T07:50:15.522Z,5.91
2023-01-15T07:52:42.997Z,5.92
2023-01-15T07:55:12.642Z,5.87
2023-01-15T07:57:41.336Z,5.82
2023-01-15T08:00:19.489Z,5.72
2023-01-15T08:02:49.707Z,5.66
2023-01-15T08:05:17.517Z,5.64
2023-01-15T08:07:45.991Z,5.62
2023-01-15T08:10:14.974Z,5.66
2023-01-15T08:13:01.570Z,5.64
2023-01-15T08:15:32.294Z,5.59
2023-01-15T08:17:59.719Z,5.61
2023-01-15T08:20:27.592Z,5.57
2023-01-15T08:22:55.132Z,5.48
2023-01-15T08:25:24.946Z,5.46
2023-01-15T08:27:53.321Z,5.48
2023-01-15T08:30:24.470Z,5.45
2023-01-15T08:32:51.929Z,5.43
2023-01-15T08:35:19.444Z,5.34
2023-01-15T08:37:46.890Z,5.38
2023-01-15T08:40:14.358Z,5.36
2023-01-15T08:42:41.390Z,5.39
2023-01-15T08:45:09.525Z,5.40
2023-01-15T08:47:37.529Z,5.33
2023-01-15T08:50:06.561Z,5.35
2023-01-15T08:52:34.089Z,5.36
2023-01-15T08:55:01.097Z,5.38
2023-01-15T08:57:28.052Z,5.32
2023-01-15T08:59:55.449Z,5.31
2023-01-15T09:02:22.775Z,5.26
2023-01-15T09:04:52.313Z,5.24
2023-01-15T09:07:19.961Z,5.20
2023-01-15T09:09:47.358Z,5.16
2023-01-15T09:12:14.878Z,5.23
2023-01-15T09:15:00.213Z,5.19
2023-01-15T09:17:30.466Z,5.19
2023-01-15T09:19:57.834Z,5.19
2023-01-15T09:22:29.881Z,5.21
2023-01-15T09:24:57.267Z,5.12
2023-01-15T09:27:24.710Z,5.12
2023-01-15T09:29:52.506Z,5.10
2023-01-15T09:32:19.877Z,5.03
2023-01-15T09:34:47.189Z,5.18
2023-01-15T09:37:14.624Z,5.03
2023-01-15T09:39:41.988Z,5.00
2023-01-15T09:42:28.068Z,5.00
2023-01-15T09:45:06.053Z,5.06
2023-01-15T09:47:40.547Z,4.93
2023-01-15T09:50:22.406Z,4.89
2023-01-15T09:53:22.953Z,4.86
2023-01-15T09:55:51.144Z,4.93
2023-01-15T09:58:24.088Z,4.92
2023-01-15T10:00:52.915Z,4.92
2023-01-15T10:03:23.677Z,4.90
2023-01-15T10:06:03.327Z,4.87
2023-01-15T10:08:42.275Z,4.82
2023-01-15T10:11:15.495Z,4.82
2023-01-15T10:13:47.008Z,4.77
2023-01-15T10:16:25.030Z,4.71
2023-01-15T10:18:53.210Z,4.71
2023-01-15T10:21:26.373Z,4.78
2023-01-15T10:23:56.660Z,4.78
2023-01-15T10:26:44.637Z,4.79
2023-01-15T10:29:15.075Z,4.75
2023-01-15T10:31:50.452Z,4.74
2023-01-15T10:34:29.753Z,4.73
2023-01-15T10:37:05.784Z,4.77
2023-01-15T10:40:03.567Z,4.70
2023-01-15T10:42:40.562Z,4.67
2023-01-15T10:45:10.676Z,4.63
2023-01-15T10:47:38.837Z,4.57
2023-01-15T10:50:26.516Z,4.47
2023-01-15T10:53:09.163Z,4.43
2023-01-15T10:55:46.477Z,4.43
2023-01-15T10:58:40.467Z,4.44
2023-01-15T11:01:15.481Z,4.35
2023-01-15T11:03:44.582Z,4.29
2023-01-15T11:06:17.975Z,4.24
2023-01-15T11:09:11.283Z,4.18
2023-01-15T11:12:00.910Z,4.11
2023-01-15T11:14:59.386Z,4.09
2023-01-15T11:18:04.753Z,4.14
2023-01-15T11:20:38.560Z,4.08
2023-01-15T11:23:35.080Z,4.10
2023-01-15T11:26:02.450Z,4.05
2023-01-15T11:28:41.416Z,4.03
2023-01-15T11:31:10.135Z,4.04
2023-01-15T11:33:38.053Z,4.03
2023-01-15T11:36:24.863Z,4.02
2023-01-15T11:38:52.943Z,3.97
2023-01-15T11:41:50.705Z,3.96
2023-01-15T11:44:38.690Z,3.95
2023-01-15T11:47:30.455Z,3.85
2023-01-15T11:50:16.495Z,3.81
2023-01-15T11:52:53.152Z,3.76
2023-01-15T11:55:22.400Z,3.76
2023-01-15T11:57:50.373Z,3.64
2023-01-15T12:00:38.642Z,3.61
2023-01-15T12:03:17.672Z,3.53
2023-01-15T12:06:05.203Z,3.56
2023-01-15T12:08:36.336Z,3.55
2023-01-15T12:11:27.021Z,3.69
2023-01-15T12:14:08.919Z,3.57
2023-01-15T12:17:12.673Z,3.55
2023-01-15T12:19:43.103Z,3.63
2023-01-15T12:22:33.676Z,3.65
2023-01-15T12:25:23.773Z,3.66
2023-01-15T12:28:05.027Z,3.56
2023-01-15T12:30:41.429Z,3.53
2023-01-15T12:33:19.963Z,3.53
2023-01-15T12:35:58.685Z,3.40
2023-01-15T12:38:49.200Z,3.42
2023-01-15T12:41:51.621Z,3.45
2023-01-15T12:44:44.177Z,3.52
2023-01-15T12:47:16.902Z,3.49
2023-01-15T12:49:48.496Z,3.56
2023-01-15T12:52:24.225Z,3.53
2023-01-15T12:55:34.867Z,3.55
2023-01-15T12:58:04.079Z,3.56
2023-01-15T13:00:44.192Z,3.62
2023-01-15T13:03:54.031Z,3.67
2023-01-15T13:06:24.279Z,3.72
2023-01-15T13:08:54.694Z,3.78
2023-01-15T13:11:22.058Z,3.79
2023-01-15T13:13:58.281Z,3.74
2023-01-15T13:16:39.001Z,3.78
2023-01-15T13:19:24.635Z,3.83
2023-01-15T13:21:54.590Z,3.88
2023-01-15T13:24:32.439Z,4.02
2023-01-15T13:27:42.973Z,4.04
2023-01-15T13:30:34.928Z,4.09
2023-01-15T13:33:16.661Z,4.19
2023-01-15T13:35:57.510Z,4.21
2023-01-15T13:38:27.490Z,4.28
2023-01-15T13:40:56.640Z,4.23
2023-01-15T13:43:34.604Z,4.15
2023-01-15T13:46:04.066Z,4.19
2023-01-15T13:48:46.716Z,4.24
2023-01-15T13:51:29.670Z,4.17
2023-01-15T13:53:58.210Z,4.23
2023-01-15T13:56:32.188Z,4.26
2023-01-15T13:59:07.124Z,4.25
2023-01-15T14:01:36.772Z,4.22
2023-01-15T14:04:10.645Z,4.22
2023-01-15T14:06:40.646Z,4.28
2023-01-15T14:09:17.379Z,4.44
2023-01-15T14:12:06.861Z,4.40
2023-01-15T14:15:11.285Z,4.27
2023-01-15T14:18:03.270Z,4.37
2023-01-15T14:20:56.682Z,4.28
2023-01-15T14:23:39.111Z,4.26
2023-01-15T14:26:17.318Z,4.29
2023-01-15T14:28:59.623Z,4.30
2023-01-15T14:31:43.902Z,4.29
2023-01-15T14:34:27.073Z,4.39
2023-01-15T14:37:23.521Z,4.33
2023-01-15T14:40:00.445Z,4.37
2023-01-15T14:43:09.298Z,4.36
2023-01-15T14:45:42.498Z,4.42
2023-01-15T14:48:28.700Z,4.52
2023-01-15T14:51:11.776Z,4.57
2023-01-15T14:54:08.325Z,4.70
2023-01-15T14:56:37.690Z,4.72
2023-01-15T14:59:26.395Z,4.73
2023-01-15T15:01:59.081Z,4.79
2023-01-15T15:04:41.071Z,4.80
2023-01-15T15:07:18.914Z,4.84
2023-01-15T15:09:54.350Z,4.81
2023-01-15T15:12:44.430Z,4.72
2023-01-15T15:15:14.753Z,4.72
2023-01-15T15:18:25.403Z,4.71
2023-01-15T15:21:08.716Z,4.82
2023-01-15T15:24:03.543Z,4.85
2023-01-15T15:26:33.795Z,4.73
2023-01-15T15:29:12.960Z,4.72
2023-01-15T15:31:43.019Z,4.69
2023-01-15T15:34:17.703Z,4.70
2023-01-15T15:36:46.783Z,4.75
2023-01-15T15:39:27.429Z,4.70
2023-01-15T15:42:15.440Z,4.76
2023-01-15T15:45:13.865Z,4.81
2023-01-15T15:48:00.729Z,4.80
2023-01-15T15:50:33.138Z,4.77
2023-01-15T15:53:04.582Z,4.64
2023-01-15T15:55:41.548Z,4.58
2023-01-15T15:58:12.946Z,4.50
2023-01-15T16:00:44.313Z,4.44
2023-01-15T16:03:26.478Z,4.40
2023-01-15T16:06:06.305Z,4.38
2023-01-15T16:08:35.506Z,4.34
2023-01-15T16:11:08.991Z,4.28
2023-01-15T16:13:49.107Z,4.34
2023-01-15T16:16:16.815Z,4.31
2023-01-15T16:18:49.851Z,4.29
2023-01-15T16:21:28.369Z,4.31
2023-01-15T16:24:02.527Z,4.22
2023-01-15T16:26:43.245Z,4.14
2023-01-15T16:29:37.046Z,4.03
2023-01-15T16:32:14.744Z,3.94
2023-01-15T16:34:42.361Z,4.10
2023-01-15T16:37:30.452Z,4.06
2023-01-15T16:39:59.326Z,4.13
2023-01-15T16:42:36.120Z,4.15
2023-01-15T16:45:27.637Z,4.11
2023-01-15T16:48:09.804Z,4.08
2023-01-15T16:50:38.884Z,4.15
2023-01-15T16:53:16.809Z,4.15
2023-01-15T16:55:45.931Z,4.11
2023-01-15T16:58:13.210Z,4.02
2023-01-15T17:01:02.214Z,3.97
2023-01-15T17:03:30.898Z,3.86
2023-01-15T17:06:03.249Z,4.00
2023-01-15T17:08:39.899Z,3.88
2023-01-15T17:11:21.489Z,3.86
2023-01-15T17:13:48.939Z,3.89
2023-01-15T17:16:22.582Z,3.86
2023-01-15T17:18:51.130Z,3.89
2023-01-15T17:21:23.381Z,3.93
2023-01-15T17:23:51.366Z,3.81
2023-01-15T17:26:21.741Z,3.80
2023-01-15T17:28:49.451Z,3.79
2023-01-15T17:31:33.501Z,3.93
2023-01-15T17:34:02.823Z,3.81
2023-01-15T17:36:30.725Z,3.80
2023-01-15T17:38:58.176Z,3.82
2023-01-15T17:41:26.085Z,3.71
2023-01-15T17:43:53.528Z,3.85
2023-01-15T17:46:21.049Z,3.77
2023-01-15T17:48:48.600Z,3.82
2023-01-15T17:51:16.772Z,3.70
2023-01-15T17:53:44.206Z,3.55
2023-01-15T17:56:30.058Z,3.65
2023-01-15T17:59:15.959Z,3.69
2023-01-15T18:02:03.745Z,3.50
2023-01-15T18:04:59.862Z,3.47
2023-01-15T18:07:30.871Z,3.53
2023-01-15T18:10:00.317Z,3.53
2023-01-15T18:12:27.694Z,3.45
2023-01-15T18:14:55.095Z,3.52
2023-01-15T18:17:22.469Z,3.53
2023-01-15T18:19:49.889Z,3.42
2023-01-15T18:22:18.912Z,3.51
2023-01-15T18:24:46.803Z,3.57
2023-01-15T18:27:14.212Z,3.45
2023-01-15T18:29:41.644Z,3.35
2023-01-15T18:32:09.564Z,3.45
2023-01-15T18:34:37.600Z,3.54
2023-01-15T18:37:05.037Z,3.45
2023-01-15T18:39:32.411Z,3.36
2023-01-15T18:41:59.759Z,3.50
2023-01-15T18:44:50.467Z,3.65
2023-01-15T18:47:17.865Z,3.49
2023-01-15T18:49:46.582Z,3.54
2023-01-15T18:52:34.550Z,3.53
2023-01-15T18:55:02.067Z,3.36
2023-01-15T18:57:29.083Z,3.48
2023-01-15T18:59:55.994Z,3.41
2023-01-15T19:02:23.085Z,3.47
2023-01-15T19:04:50.213Z,3.51
2023-01-15T19:07:18.279Z,3.49
2023-01-15T19:09:45.265Z,3.53
2023-01-15T19:12:13.623Z,3.48
2023-01-15T19:14:59.153Z,3.41
2023-01-15T19:18:04.891Z,3.47
2023-01-15T19:20:31.877Z,3.31
2023-01-15T19:22:59.022Z,3.32
2023-01-15T19:25:41.269Z,3.38
2023-01-15T19:28:13.777Z,3.34
2023-01-15T19:30:40.800Z,3.35
2023-01-15T19:33:09.316Z,3.18
2023-01-15T19:35:38.750Z,3.20
2023-01-15T19:38:08.391Z,3.13
2023-01-15T19:40:40.654Z,3.07
2023-01-15T19:43:28.457Z,2.96
2023-01-15T19:46:14.509Z,3.20
2023-01-15T19:49:00.160Z,3.04
2023-01-15T19:51:47.079Z,3.20
2023-01-15T19:54:14.602Z,3.10
2023-01-15T19:56:42.265Z,3.12
2023-01-15T19:59:09.299Z,3.10
2023-01-15T20:01:36.366Z,3.03
2023-01-15T20:04:03.396Z,2.88
2023-01-15T20:06:30.319Z,2.87
2023-01-15T20:08:57.227Z,2.88
2023-01-15T20:11:24.326Z,2.75
2023-01-15T20:13:53.984Z,2.75
2023-01-15T20:16:23.136Z,2.82
2023-01-15T20:18:51.179Z,2.69
2023-01-15T20:21:18.817Z,2.58
2023-01-15T20:23:46.186Z,2.59
2023-01-15T20:26:15.293Z,2.58
2023-01-15T20:28:42.897Z,2.69
2023-01-15T20:31:18.682Z,2.64
2023-01-15T20:33:47.115Z,2.67
2023-01-15T20:36:14.566Z,2.46
2023-01-15T20:38:41.527Z,2.43
2023-01-15T20:41:29.378Z,2.37
2023-01-15T20:44:14.909Z,2.45
2023-01-15T20:46:41.911Z,2.42
2023-01-15T20:49:32.441Z,2.32
2023-01-15T20:52:01.282Z,2.50
2023-01-15T20:54:28.428Z,2.33
2023-01-15T20:56:55.435Z,2.34
2023-01-15T20:59:22.557Z,2.23
2023-01-15T21:01:49.574Z,2.15
2023-01-15T21:04:16.831Z,2.29
2023-01-15T21:06:43.897Z,2.38
2023-01-15T21:09:11.070Z,2.25
2023-01-15T21:11:38.048Z,2.30
2023-01-15T21:14:05.111Z,2.18
2023-01-15T21:16:32.071Z,2.27
2023-01-15T21:19:01.286Z,2.39
2023-01-15T21:21:28.393Z,2.42
2023-01-15T21:23:55.547Z,2.42
2023-01-15T21:26:24.411Z,2.44
2023-01-15T21:28:55.238Z,2.39
2023-01-15T21:31:22.659Z,2.29
2023-01-15T21:33:52.760Z,2.36
2023-01-15T21:36:19.735Z,2.73
2023-01-15T21:38:58.828Z,2.84
2023-01-15T21:41:45.059Z,2.71
2023-01-15T21:44:31.555Z,2.86
2023-01-15T21:47:08.151Z,2.99
2023-01-15T21:49:35.214Z,3.00
2023-01-15T21:52:06.160Z,2.88
2023-01-15T21:54:33.814Z,2.90
2023-01-15T21:57:01.628Z,2.81
2023-01-15T21:59:28.757Z,2.90
2023-01-15T22:01:57.601Z,2.90
2023-01-15T22:04:28.146Z,2.93
2023-01-15T22:06:56.131Z,2.92
2023-01-15T22:09:23.557Z,2.88
2023-01-15T22:11:52.497Z,3.05
2023-01-15T22:14:28.604Z,3.07
2023-01-15T22:16:58.503Z,3.21
2023-01-15T22:19:29.272Z,3.29
2023-01-15T22:22:04.134Z,3.37
2023-01-15T22:24:33.686Z,3.36
2023-01-15T22:27:02.133Z,3.42
2023-01-15T22:29:38.251Z,3.53
2023-01-15T22:32:07.630Z,3.64
2023-01-15T22:34:34.761Z,3.65
2023-01-15T22:37:01.737Z,3.78
2023-01-15T22:39:29.346Z,3.76
2023-01-15T22:42:15.057Z,3.89
2023-01-15T22:44:45.559Z,3.93
2023-01-15T22:47:13.224Z,3.94
2023-01-15T22:49:40.178Z,3.95
2023-01-15T22:52:07.663Z,3.94
2023-01-15T22:54:34.707Z,4.12
2023-01-15T22:57:02.253Z,3.98
2023-01-15T22:59:29.568Z,3.93
2023-01-15T23:01:57.033Z,3.84
2023-01-15T23:04:25.492Z,3.72
2023-01-15T23:06:53.571Z,3.93
2023-01-15T23:09:22.855Z,3.82
2023-01-15T23:11:51.602Z,3.73
2023-01-15T23:14:20.406Z,3.69
2023-01-15T23:16:47.809Z,3.55
2023-01-15T23:19:15.048Z,3.43
2023-01-15T23:21:42.496Z,3.30
2023-01-15T23:24:10.798Z,3.26
2023-01-15T23:26:38.336Z,3.31
2023-01-15T23:29:05.644Z,3.34
2023-01-15T23:31:32.857Z,3.34
2023-01-15T23:34:00.138Z,3.30
2023-01-15T23:36:27.216Z,3.30
2023-01-15T23:38:54.622Z,3.24
2023-01-15T23:41:43.793Z,3.25
2023-01-15T23:44:37.247Z,3.30
2023-01-15T23:47:05.364Z,3.24
2023-01-15T23:49:32.471Z,3.19
2023-01-15T23:51:59.989Z,3.17
2023-01-15T23:54:30.081Z,3.15
2023-01-15T23:56:59.452Z,3.13
2023-01-15T23:59:27.145Z,3.15
